Time;durP1;ratioP1;P1;durP2;ratioP2;P2;SDS_P1;SDS_P2;PMS_P1;PMS_P2;Temp;Humidity;BMP_temperature;BMP_pressure;BME280_temperature;BME280_humidity;BME280_pressure;Samples;Min_cycle;Max_cycle;Signal;HPM_P1;HPM_P2
2021/06/06 00:00:50;;;;;;;8.77;7.63;;;;;;;23.89;40.17;101315.00;31428342;28;20032;-62
2021/06/06 00:15:51;;;;;;;10.95;7.72;;;;;;;23.82;39.49;101310.31;31480191;28;20032;-64
2021/06/06 00:30:52;;;;;;;8.35;7.38;;;;;;;23.77;39.66;101309.06;31477140;28;20375;-64
2021/06/06 00:45:54;;;;;;;8.82;7.10;;;;;;;23.75;40.08;101317.16;31468655;28;20071;-63
2021/06/06 01:00:55;;;;;;;10.85;7.50;;;;;;;23.73;40.02;101318.25;31508062;28;20040;-64
2021/06/06 01:16:09;;;;;;;8.23;7.07;;;;;;;23.67;39.93;101313.56;31495624;28;20387;-64
2021/06/06 01:31:10;;;;;;;7.93;7.13;;;;;;;23.62;39.71;101321.97;31471712;28;20036;-64
2021/06/06 01:46:14;;;;;;;9.73;7.72;;;;;;;23.56;39.67;101311.94;31486387;28;20028;-65
2021/06/06 02:01:18;;;;;;;7.82;6.50;;;;;;;23.51;39.73;101314.19;31468052;28;20090;-65
2021/06/06 02:16:25;;;;;;;8.23;7.43;;;;;;;23.49;39.85;101324.13;31342979;28;20037;-64
2021/06/06 02:31:46;;;;;;;7.93;7.13;;;;;;;23.48;39.96;101311.81;31479569;28;20059;-64
2021/06/06 02:46:47;;;;;;;10.55;7.00;;;;;;;23.46;40.27;101317.28;31581243;28;20072;-63
2021/06/06 03:01:51;;;;;;;7.68;6.32;;;;;;;23.45;39.74;101312.97;31520670;28;20552;-64
2021/06/06 03:17:03;;;;;;;8.70;7.20;;;;;;;23.45;40.35;101323.56;31501959;28;20037;-64
2021/06/06 03:32:07;;;;;;;8.40;6.65;;;;;;;23.47;40.06;101323.44;31574199;28;20070;-64
2021/06/06 03:47:08;;;;;;;9.05;7.03;;;;;;;23.49;40.07;101335.56;31625429;28;20041;-64
2021/06/06 04:02:09;;;;;;;7.47;6.70;;;;;;;23.52;40.13;101335.25;31623946;28;20035;-64
2021/06/06 04:17:10;;;;;;;7.20;6.50;;;;;;;23.56;40.08;101341.97;31621940;28;20024;-64
2021/06/06 04:32:15;;;;;;;8.75;7.43;;;;;;;23.59;39.90;101344.34;31544196;28;20372;-64
2021/06/06 04:47:16;;;;;;;7.20;6.50;;;;;;;23.63;39.74;101342.22;31467301;28;20029;-64
2021/06/06 05:02:17;;;;;;;7.30;6.60;;;;;;;23.66;40.04;101335.75;31349744;28;20040;-64
2021/06/06 05:17:18;;;;;;;7.65;6.85;;;;;;;23.70;40.14;101345.09;31365499;28;20086;-64
2021/06/06 05:32:19;;;;;;;7.65;6.85;;;;;;;23.73;40.30;101347.47;31516088;28;20047;-64
2021/06/06 05:47:21;;;;;;;7.40;6.70;;;;;;;23.78;40.10;101350.56;31590318;28;20078;-64
2021/06/06 06:02:22;;;;;;;8.40;7.60;;;;;;;23.85;40.21;101351.63;31607568;28;20043;-65
2021/06/06 06:17:23;;;;;;;7.95;7.15;;;;;;;23.94;40.14;101357.88;31608706;28;20387;-65
2021/06/06 06:32:24;;;;;;;7.65;6.88;;;;;;;24.12;39.89;101373.81;31553101;28;20098;-65
2021/06/06 06:47:25;;;;;;;8.02;7.22;;;;;;;24.28;39.47;101370.50;31484344;28;20039;-64
2021/06/06 07:02:26;;;;;;;7.97;7.18;;;;;;;24.32;39.50;101366.56;31461768;28;20397;-64
2021/06/06 07:17:27;;;;;;;8.05;6.90;;;;;;;24.38;39.47;101372.09;31571753;28;20032;-64
2021/06/06 07:32:28;;;;;;;11.15;10.05;;;;;;;24.52;41.02;101369.94;31496504;28;20056;-63
2021/06/06 07:47:29;;;;;;;13.48;12.18;;;;;;;24.65;41.45;101367.75;31468842;28;20390;-65
2021/06/06 08:02:30;;;;;;;15.38;12.73;;;;;;;24.70;42.20;101375.25;31472373;28;20090;-67
2021/06/06 08:17:31;;;;;;;13.20;11.98;;;;;;;24.78;41.90;101370.00;31424581;28;20028;-67
2021/06/06 08:32:32;;;;;;;12.57;11.27;;;;;;;24.97;40.70;101364.50;31483375;28;20044;-68
2021/06/06 08:47:33;;;;;;;12.52;11.43;;;;;;;25.23;39.88;101364.53;31457408;28;20137;-65
2021/06/06 09:02:49;;;;;;;10.30;9.32;;;;;;;25.53;38.35;101367.69;31447595;28;20563;-67
2021/06/06 09:17:53;;;;;;;8.45;7.55;;;;;;;25.63;33.54;101370.22;31419407;28;20028;-67
2021/06/06 09:33:29;;;;;;;7.47;6.60;;;;;;;25.62;33.37;101352.59;31386558;28;20057;-67
2021/06/06 09:48:32;;;;;;;8.20;6.80;;;;;;;25.70;32.95;101356.13;31410887;28;20119;-67
2021/06/06 10:03:42;;;;;;;7.00;6.30;;;;;;;26.02;31.22;101346.59;31448520;28;20028;-68
2021/06/06 10:18:57;;;;;;;6.22;5.63;;;;;;;26.43;30.58;101343.16;31415675;28;20028;-66
2021/06/06 10:34:22;;;;;;;8.00;5.60;;;;;;;26.71;27.19;101333.84;31443412;28;20111;-66
2021/06/06 10:49:47;;;;;;;6.03;5.43;;;;;;;26.83;28.19;101339.69;31428340;28;20725;-66
2021/06/06 11:04:51;;;;;;;8.10;5.80;;;;;;;26.87;28.06;101333.00;31418261;28;20032;-67
2021/06/06 11:19:52;;;;;;;7.00;5.97;;;;;;;26.92;27.18;101328.00;31432865;28;20044;-67
2021/06/06 11:35:04;;;;;;;6.97;5.67;;;;;;;27.20;25.74;101313.44;31415100;28;20033;-67
2021/06/06 11:50:27;;;;;;;6.63;5.93;;;;;;;27.34;25.47;101312.72;31453963;28;20487;-67
2021/06/06 12:05:30;;;;;;;6.45;5.85;;;;;;;26.82;26.51;101306.00;31474902;28;20028;-67
2021/06/06 12:20:31;;;;;;;7.45;6.07;;;;;;;27.12;25.48;101299.09;31411030;28;20399;-67
2021/06/06 12:35:45;;;;;;;7.63;6.55;;;;;;;27.11;25.83;101288.59;31463746;28;20090;-67
2021/06/06 12:50:46;;;;;;;;;;;;;;;27.09;26.97;101280.75;31420670;28;20095;-67
2021/06/06 13:05:49;;;;;;;6.95;5.95;;;;;;;27.02;24.55;101279.78;31437958;28;19912;-66
2021/06/06 13:20:55;;;;;;;9.50;5.93;;;;;;;26.92;24.92;101279.97;31432558;28;20041;-68
2021/06/06 13:35:56;;;;;;;6.25;5.65;;;;;;;26.82;25.51;101278.50;31425696;28;20033;-67
2021/06/06 13:50:58;;;;;;;6.10;5.50;;;;;;;26.61;26.79;101266.53;31446546;28;20441;-68
2021/06/06 14:05:59;;;;;;;6.93;5.97;;;;;;;26.32;28.38;101265.19;31447196;28;20052;-69
2021/06/06 14:21:00;;;;;;;7.82;6.60;;;;;;;26.26;29.25;101255.19;31459355;28;20041;-66
2021/06/06 14:36:04;;;;;;;8.48;7.00;;;;;;;26.31;29.98;101244.03;31489588;28;20037;-66
2021/06/06 14:51:07;;;;;;;11.23;6.80;;;;;;;26.23;30.35;101252.88;31503233;28;20029;-66
2021/06/06 15:06:08;;;;;;;7.77;6.20;;;;;;;26.21;30.52;101241.56;31505491;28;20071;-66
2021/06/06 15:21:12;;;;;;;8.80;6.40;;;;;;;26.12;30.90;101222.06;31484942;28;20529;-66
2021/06/06 15:36:13;;;;;;;8.57;6.00;;;;;;;25.94;31.49;101216.06;31609826;28;20085;-67
2021/06/06 15:51:16;;;;;;;8.23;6.20;;;;;;;25.71;32.16;101224.66;31624930;28;20024;-65
2021/06/06 16:06:18;;;;;;;6.97;6.15;;;;;;;25.62;32.33;101228.31;31597368;28;20032;-66
2021/06/06 16:21:22;;;;;;;6.88;6.03;;;;;;;25.47;32.68;101225.44;31391469;28;20045;-67
2021/06/06 16:36:24;;;;;;;6.73;6.03;;;;;;;25.34;33.12;101214.44;31590545;28;20024;-67
2021/06/06 16:51:25;;;;;;;8.68;6.00;;;;;;;25.27;33.15;101224.88;31618309;28;20027;-67
2021/06/06 17:06:27;;;;;;;6.60;6.00;;;;;;;25.23;33.70;101247.47;31615996;28;20045;-68
2021/06/06 17:21:28;;;;;;;6.82;6.22;;;;;;;25.18;33.70;101255.09;31597922;28;20410;-68
2021/06/06 17:36:29;;;;;;;7.38;6.50;;;;;;;25.10;33.98;101276.28;31394630;28;20036;-66
2021/06/06 17:51:30;;;;;;;7.10;6.40;;;;;;;25.03;34.37;101273.44;31368546;28;20029;-66
2021/06/06 18:06:31;;;;;;;6.82;6.13;;;;;;;24.99;34.59;101297.84;31361002;28;20021;-67
2021/06/06 18:21:36;;;;;;;7.05;6.28;;;;;;;24.93;34.93;101303.81;31362697;28;20094;-68
2021/06/06 18:36:41;;;;;;;7.03;6.32;;;;;;;24.86;35.10;101307.09;31568428;28;20044;-67
2021/06/06 18:51:42;;;;;;;8.23;6.38;;;;;;;24.83;35.17;101318.03;31593773;28;20028;-67
2021/06/06 19:06:43;;;;;;;8.75;6.53;;;;;;;24.79;35.73;101347.75;31625523;28;20168;-66
2021/06/06 19:21:45;;;;;;;7.22;6.53;;;;;;;24.73;35.83;101359.81;31588946;28;20097;-67
2021/06/06 19:36:46;;;;;;;8.90;6.55;;;;;;;24.68;36.18;101378.06;31512419;28;20028;-67
2021/06/06 19:51:47;;;;;;;6.75;6.05;;;;;;;24.64;36.09;101382.84;31512223;28;20135;-67
2021/06/06 20:06:48;;;;;;;7.13;6.43;;;;;;;24.60;35.84;101397.44;31519240;28;20024;-67
2021/06/06 20:21:58;;;;;;;6.53;5.90;;;;;;;24.56;36.15;101404.03;31394725;28;20095;-66
2021/06/06 20:36:59;;;;;;;5.68;5.05;;;;;;;24.54;35.89;101411.31;31585556;28;20043;-67
2021/06/06 20:52:01;;;;;;;6.00;5.40;;;;;;;24.51;35.84;101416.09;31620990;28;20413;-68
2021/06/06 21:07:02;;;;;;;5.63;4.95;;;;;;;24.46;35.89;101414.72;31622209;28;20028;-66
2021/06/06 21:22:03;;;;;;;5.43;4.93;;;;;;;24.45;36.18;101422.81;31567810;28;20044;-67
2021/06/06 21:37:04;;;;;;;6.32;5.40;;;;;;;24.48;36.59;101419.88;31451752;28;20452;-66
2021/06/06 21:52:05;;;;;;;6.55;5.25;;;;;;;24.50;37.23;101428.56;31456135;28;20082;-67
2021/06/06 22:07:06;;;;;;;7.03;5.00;;;;;;;24.50;36.98;101433.88;31490399;28;20066;-68
2021/06/06 22:22:45;;;;;;;6.03;4.38;;;;;;;24.47;36.49;101447.47;31449610;28;20041;-67
2021/06/06 22:38:23;;;;;;;5.63;4.10;;;;;;;24.37;34.34;101452.81;31470001;28;20094;-65
2021/06/06 22:54:01;;;;;;;5.75;4.00;;;;;;;24.19;34.09;101452.78;31464569;28;20098;-66
2021/06/06 23:09:40;;;;;;;4.30;3.70;;;;;;;24.20;34.18;101459.75;31464661;28;20548;-64
2021/06/06 23:24:46;;;;;;;5.47;3.63;;;;;;;24.18;34.28;101461.72;31474180;28;20044;-64
2021/06/06 23:39:47;;;;;;;8.10;3.90;;;;;;;24.14;33.75;101455.00;31506165;28;20089;-65
2021/06/06 23:54:49;;;;;;;6.22;3.55;;;;;;;24.09;33.57;101453.78;31500560;28;20020;-66
